In Rescue
 
Open Full Screen Window  High Contrast Mode
Wind Gusting 00 knots
06
May 13, 2021 11:18 AM CDT
Weather Information
Wind Direction
  260 °
Wind Speed
  06 kt (7 mph)
Wind Gust
  00 kt (0 mph)
Altimeter
30.26 in
Visibility
10 SM
Temperature
19° C
66° F
Dewpoint
00° C
32° F
Humidity
28%
1hr Rain Fall
00.00 in.
24hr Rain Fall
00.00 in.
Sky Condition
Clear
VFR

METAR KCQM 131618Z AUTO 26006KT 10SM CLR 19/00 A3026 RMK AO2

FAA Disclaimer: The data displayed is for advisory purposes only and is not to be used for flight planning or operations.